sensor_id;sensor_type;location;lat;lon;timestamp;temperature;humidity
69543;SHT31;56762;49.494;11.768;2022-08-21T00:00:38;16.74;91.17
69543;SHT31;56762;49.494;11.768;2022-08-21T00:03:12;16.75;91.47
69543;SHT31;56762;49.494;11.768;2022-08-21T00:05:43;16.74;91.53
69543;SHT31;56762;49.494;11.768;2022-08-21T00:08:11;16.77;91.72
69543;SHT31;56762;49.494;11.768;2022-08-21T00:10:43;16.77;91.09
69543;SHT31;56762;49.494;11.768;2022-08-21T00:13:12;16.72;91.32
69543;SHT31;56762;49.494;11.768;2022-08-21T00:15:44;16.70;91.16
69543;SHT31;56762;49.494;11.768;2022-08-21T00:18:14;16.65;91.09
69543;SHT31;56762;49.494;11.768;2022-08-21T00:20:45;16.64;91.18
69543;SHT31;56762;49.494;11.768;2022-08-21T00:23:13;16.63;91.52
69543;SHT31;56762;49.494;11.768;2022-08-21T00:25:42;16.64;91.34
69543;SHT31;56762;49.494;11.768;2022-08-21T00:28:11;16.65;91.13
69543;SHT31;56762;49.494;11.768;2022-08-21T00:30:40;16.61;91.29
69543;SHT31;56762;49.494;11.768;2022-08-21T00:33:11;16.65;90.99
69543;SHT31;56762;49.494;11.768;2022-08-21T00:35:41;16.61;91.14
69543;SHT31;56762;49.494;11.768;2022-08-21T00:38:10;16.58;91.15
69543;SHT31;56762;49.494;11.768;2022-08-21T00:40:41;16.58;91.06
69543;SHT31;56762;49.494;11.768;2022-08-21T00:43:12;16.60;91.20
69543;SHT31;56762;49.494;11.768;2022-08-21T00:45:41;16.54;90.87
69543;SHT31;56762;49.494;11.768;2022-08-21T00:48:09;16.56;91.07
69543;SHT31;56762;49.494;11.768;2022-08-21T00:50:40;16.53;90.94
69543;SHT31;56762;49.494;11.768;2022-08-21T00:53:13;16.51;91.10
69543;SHT31;56762;49.494;11.768;2022-08-21T00:55:43;16.50;91.09
69543;SHT31;56762;49.494;11.768;2022-08-21T00:58:13;16.48;91.09
69543;SHT31;56762;49.494;11.768;2022-08-21T01:00:46;16.48;91.21
69543;SHT31;56762;49.494;11.768;2022-08-21T01:03:17;16.51;91.40
69543;SHT31;56762;49.494;11.768;2022-08-21T01:05:49;16.48;91.24
69543;SHT31;56762;49.494;11.768;2022-08-21T01:08:20;16.43;90.93
69543;SHT31;56762;49.494;11.768;2022-08-21T01:10:49;16.40;91.06
69543;SHT31;56762;49.494;11.768;2022-08-21T01:13:21;16.37;91.39
69543;SHT31;56762;49.494;11.768;2022-08-21T01:15:53;16.31;91.32
69543;SHT31;56762;49.494;11.768;2022-08-21T01:18:23;16.31;91.50
69543;SHT31;56762;49.494;11.768;2022-08-21T01:21:01;16.29;91.43
69543;SHT31;56762;49.494;11.768;2022-08-21T01:23:29;16.29;91.40
69543;SHT31;56762;49.494;11.768;2022-08-21T01:25:57;16.26;91.27
69543;SHT31;56762;49.494;11.768;2022-08-21T01:28:26;16.26;91.32
69543;SHT31;56762;49.494;11.768;2022-08-21T01:30:57;16.24;91.32
69543;SHT31;56762;49.494;11.768;2022-08-21T01:33:26;16.21;91.16
69543;SHT31;56762;49.494;11.768;2022-08-21T01:35:54;16.26;91.28
69543;SHT31;56762;49.494;11.768;2022-08-21T01:38:24;16.23;91.18
69543;SHT31;56762;49.494;11.768;2022-08-21T01:40:52;16.21;91.23
69543;SHT31;56762;49.494;11.768;2022-08-21T01:43:23;16.19;91.21
69543;SHT31;56762;49.494;11.768;2022-08-21T01:46:04;16.17;91.25
69543;SHT31;56762;49.494;11.768;2022-08-21T01:48:32;16.14;91.32
69543;SHT31;56762;49.494;11.768;2022-08-21T01:51:00;16.14;91.26
69543;SHT31;56762;49.494;11.768;2022-08-21T01:53:29;16.14;90.98
69543;SHT31;56762;49.494;11.768;2022-08-21T01:55:59;16.14;91.10
69543;SHT31;56762;49.494;11.768;2022-08-21T01:58:27;16.13;91.29
69543;SHT31;56762;49.494;11.768;2022-08-21T02:00:57;16.10;91.19
69543;SHT31;56762;49.494;11.768;2022-08-21T02:03:25;16.08;91.21
69543;SHT31;56762;49.494;11.768;2022-08-21T02:06:01;16.08;91.34
69543;SHT31;56762;49.494;11.768;2022-08-21T02:08:31;16.06;91.44
69543;SHT31;56762;49.494;11.768;2022-08-21T02:10:59;16.08;91.22
69543;SHT31;56762;49.494;11.768;2022-08-21T02:13:27;16.06;91.09
69543;SHT31;56762;49.494;11.768;2022-08-21T02:15:55;16.05;91.17
69543;SHT31;56762;49.494;11.768;2022-08-21T02:18:23;16.06;91.58
69543;SHT31;56762;49.494;11.768;2022-08-21T02:20:52;16.08;91.54
69543;SHT31;56762;49.494;11.768;2022-08-21T02:23:23;16.06;91.36
69543;SHT31;56762;49.494;11.768;2022-08-21T02:25:54;16.03;91.13
69543;SHT31;56762;49.494;11.768;2022-08-21T02:28:22;16.03;91.27
69543;SHT31;56762;49.494;11.768;2022-08-21T02:30:55;16.02;91.13
69543;SHT31;56762;49.494;11.768;2022-08-21T02:33:25;15.99;91.22
69543;SHT31;56762;49.494;11.768;2022-08-21T02:35:54;16.00;91.07
69543;SHT31;56762;49.494;11.768;2022-08-21T02:38:28;15.95;91.13
69543;SHT31;56762;49.494;11.768;2022-08-21T02:40:58;15.95;90.98
69543;SHT31;56762;49.494;11.768;2022-08-21T02:43:27;15.92;90.93
69543;SHT31;56762;49.494;11.768;2022-08-21T02:45:56;15.90;90.98
69543;SHT31;56762;49.494;11.768;2022-08-21T02:48:26;15.88;91.11
69543;SHT31;56762;49.494;11.768;2022-08-21T02:50:58;15.85;91.09
69543;SHT31;56762;49.494;11.768;2022-08-21T02:53:26;15.79;91.05
69543;SHT31;56762;49.494;11.768;2022-08-21T02:56:00;15.77;91.39
69543;SHT31;56762;49.494;11.768;2022-08-21T02:58:31;15.75;91.51
69543;SHT31;56762;49.494;11.768;2022-08-21T03:00:59;15.72;91.42
69543;SHT31;56762;49.494;11.768;2022-08-21T03:03:28;15.73;91.06
69543;SHT31;56762;49.494;11.768;2022-08-21T03:05:56;15.72;91.24
69543;SHT31;56762;49.494;11.768;2022-08-21T03:08:24;15.68;91.31
69543;SHT31;56762;49.494;11.768;2022-08-21T03:10:53;15.69;91.12
69543;SHT31;56762;49.494;11.768;2022-08-21T03:13:24;15.63;90.79
69543;SHT31;56762;49.494;11.768;2022-08-21T03:15:53;15.59;91.07
69543;SHT31;56762;49.494;11.768;2022-08-21T03:18:23;15.59;91.06
69543;SHT31;56762;49.494;11.768;2022-08-21T03:20:51;15.57;91.05
69543;SHT31;56762;49.494;11.768;2022-08-21T03:23:22;15.57;91.03
69543;SHT31;56762;49.494;11.768;2022-08-21T03:25:58;15.52;91.06
69543;SHT31;56762;49.494;11.768;2022-08-21T03:28:28;15.54;91.06
69543;SHT31;56762;49.494;11.768;2022-08-21T03:30:56;15.47;90.98
69543;SHT31;56762;49.494;11.768;2022-08-21T03:33:23;15.49;90.87
69543;SHT31;56762;49.494;11.768;2022-08-21T03:35:57;15.48;90.71
69543;SHT31;56762;49.494;11.768;2022-08-21T03:38:28;15.39;90.64
69543;SHT31;56762;49.494;11.768;2022-08-21T03:40:58;15.42;90.86
69543;SHT31;56762;49.494;11.768;2022-08-21T03:43:28;15.38;91.05
69543;SHT31;56762;49.494;11.768;2022-08-21T03:46:00;15.37;90.76
69543;SHT31;56762;49.494;11.768;2022-08-21T03:48:28;15.35;90.97
69543;SHT31;56762;49.494;11.768;2022-08-21T03:50:56;15.35;91.21
69543;SHT31;56762;49.494;11.768;2022-08-21T03:53:25;15.37;91.09
69543;SHT31;56762;49.494;11.768;2022-08-21T03:55:53;15.39;91.05
69543;SHT31;56762;49.494;11.768;2022-08-21T03:58:22;15.42;90.77
69543;SHT31;56762;49.494;11.768;2022-08-21T04:00:54;15.38;91.07
69543;SHT31;56762;49.494;11.768;2022-08-21T04:03:22;15.49;91.84
69543;SHT31;56762;49.494;11.768;2022-08-21T04:05:51;15.59;91.60
69543;SHT31;56762;49.494;11.768;2022-08-21T04:08:19;15.65;91.21
69543;SHT31;56762;49.494;11.768;2022-08-21T04:10:50;15.66;90.93
69543;SHT31;56762;49.494;11.768;2022-08-21T04:13:21;15.70;91.11
69543;SHT31;56762;49.494;11.768;2022-08-21T04:15:48;15.77;91.18
69543;SHT31;56762;49.494;11.768;2022-08-21T04:18:18;15.77;90.55
69543;SHT31;56762;49.494;11.768;2022-08-21T04:20:48;15.75;90.57
69543;SHT31;56762;49.494;11.768;2022-08-21T04:23:17;15.78;90.95
69543;SHT31;56762;49.494;11.768;2022-08-21T04:25:50;15.78;90.92
69543;SHT31;56762;49.494;11.768;2022-08-21T04:28:19;15.83;91.40
69543;SHT31;56762;49.494;11.768;2022-08-21T04:30:49;15.85;91.57
69543;SHT31;56762;49.494;11.768;2022-08-21T04:33:19;15.88;91.72
69543;SHT31;56762;49.494;11.768;2022-08-21T04:35:47;15.88;91.74
69543;SHT31;56762;49.494;11.768;2022-08-21T04:38:16;15.90;91.78
69543;SHT31;56762;49.494;11.768;2022-08-21T04:40:46;15.96;92.10
69543;SHT31;56762;49.494;11.768;2022-08-21T04:43:15;16.00;92.25
69543;SHT31;56762;49.494;11.768;2022-08-21T04:45:45;16.02;92.13
69543;SHT31;56762;49.494;11.768;2022-08-21T04:48:16;16.03;91.65
69543;SHT31;56762;49.494;11.768;2022-08-21T04:50:49;16.02;91.68
69543;SHT31;56762;49.494;11.768;2022-08-21T04:53:22;15.99;91.96
69543;SHT31;56762;49.494;11.768;2022-08-21T04:55:51;16.00;92.02
69543;SHT31;56762;49.494;11.768;2022-08-21T04:58:21;15.98;92.06
69543;SHT31;56762;49.494;11.768;2022-08-21T05:00:52;15.99;91.95
69543;SHT31;56762;49.494;11.768;2022-08-21T05:03:22;16.00;91.97
69543;SHT31;56762;49.494;11.768;2022-08-21T05:05:52;15.98;92.21
69543;SHT31;56762;49.494;11.768;2022-08-21T05:08:21;15.99;92.01
69543;SHT31;56762;49.494;11.768;2022-08-21T05:10:51;15.98;92.20
69543;SHT31;56762;49.494;11.768;2022-08-21T05:13:25;16.03;92.41
69543;SHT31;56762;49.494;11.768;2022-08-21T05:15:53;16.05;92.34
69543;SHT31;56762;49.494;11.768;2022-08-21T05:18:22;16.08;92.44
69543;SHT31;56762;49.494;11.768;2022-08-21T05:20:51;16.09;92.35
69543;SHT31;56762;49.494;11.768;2022-08-21T05:23:19;16.13;92.25
69543;SHT31;56762;49.494;11.768;2022-08-21T05:25:47;16.14;92.20
69543;SHT31;56762;49.494;11.768;2022-08-21T05:28:15;16.17;92.29
69543;SHT31;56762;49.494;11.768;2022-08-21T05:30:45;16.21;92.36
69543;SHT31;56762;49.494;11.768;2022-08-21T05:33:13;16.27;92.32
69543;SHT31;56762;49.494;11.768;2022-08-21T05:35:42;16.26;92.16
69543;SHT31;56762;49.494;11.768;2022-08-21T05:38:11;16.31;92.16
69543;SHT31;56762;49.494;11.768;2022-08-21T05:40:44;16.34;91.80
69543;SHT31;56762;49.494;11.768;2022-08-21T05:43:12;16.34;91.90
69543;SHT31;56762;49.494;11.768;2022-08-21T05:45:40;16.37;91.93
69543;SHT31;56762;49.494;11.768;2022-08-21T05:48:12;16.36;91.83
69543;SHT31;56762;49.494;11.768;2022-08-21T05:50:40;16.37;92.19
69543;SHT31;56762;49.494;11.768;2022-08-21T05:53:09;16.37;91.79
69543;SHT31;56762;49.494;11.768;2022-08-21T05:55:39;16.34;91.64
69543;SHT31;56762;49.494;11.768;2022-08-21T05:58:12;16.33;91.67
69543;SHT31;56762;49.494;11.768;2022-08-21T06:00:40;16.36;91.90
69543;SHT31;56762;49.494;11.768;2022-08-21T06:03:12;16.39;92.07
69543;SHT31;56762;49.494;11.768;2022-08-21T06:05:40;16.46;92.05
69543;SHT31;56762;49.494;11.768;2022-08-21T06:08:08;16.50;91.93
69543;SHT31;56762;49.494;11.768;2022-08-21T06:10:36;16.53;91.52
69543;SHT31;56762;49.494;11.768;2022-08-21T06:13:05;16.51;91.38
69543;SHT31;56762;49.494;11.768;2022-08-21T06:15:33;16.43;91.74
69543;SHT31;56762;49.494;11.768;2022-08-21T06:18:02;16.40;91.70
69543;SHT31;56762;49.494;11.768;2022-08-21T06:20:30;16.40;92.06
69543;SHT31;56762;49.494;11.768;2022-08-21T06:22:59;16.44;91.97
69543;SHT31;56762;49.494;11.768;2022-08-21T06:25:28;16.50;92.22
69543;SHT31;56762;49.494;11.768;2022-08-21T06:28:01;16.54;92.32
69543;SHT31;56762;49.494;11.768;2022-08-21T06:30:31;16.53;92.28
69543;SHT31;56762;49.494;11.768;2022-08-21T06:32:59;16.61;92.24
69543;SHT31;56762;49.494;11.768;2022-08-21T06:35:28;16.63;91.78
69543;SHT31;56762;49.494;11.768;2022-08-21T06:37:57;16.60;91.32
69543;SHT31;56762;49.494;11.768;2022-08-21T06:40:26;16.60;91.18
69543;SHT31;56762;49.494;11.768;2022-08-21T06:42:56;16.56;91.55
69543;SHT31;56762;49.494;11.768;2022-08-21T06:45:24;16.60;91.68
69543;SHT31;56762;49.494;11.768;2022-08-21T06:47:55;16.61;92.04
69543;SHT31;56762;49.494;11.768;2022-08-21T06:50:22;16.64;91.74
69543;SHT31;56762;49.494;11.768;2022-08-21T06:52:58;16.70;91.55
69543;SHT31;56762;49.494;11.768;2022-08-21T06:55:26;16.72;91.57
69543;SHT31;56762;49.494;11.768;2022-08-21T06:57:54;16.74;91.18
69543;SHT31;56762;49.494;11.768;2022-08-21T07:00:22;16.78;91.97
69543;SHT31;56762;49.494;11.768;2022-08-21T07:02:50;16.84;91.73
69543;SHT31;56762;49.494;11.768;2022-08-21T07:05:19;16.84;91.74
69543;SHT31;56762;49.494;11.768;2022-08-21T07:07:47;16.88;91.51
69543;SHT31;56762;49.494;11.768;2022-08-21T07:10:15;16.89;91.63
69543;SHT31;56762;49.494;11.768;2022-08-21T07:12:48;16.92;91.48
69543;SHT31;56762;49.494;11.768;2022-08-21T07:15:26;16.94;91.65
69543;SHT31;56762;49.494;11.768;2022-08-21T07:17:53;16.96;91.39
69543;SHT31;56762;49.494;11.768;2022-08-21T07:20:22;17.04;91.78
69543;SHT31;56762;49.494;11.768;2022-08-21T07:22:50;17.08;90.98
69543;SHT31;56762;49.494;11.768;2022-08-21T07:25:18;17.09;90.71
69543;SHT31;56762;49.494;11.768;2022-08-21T07:27:46;17.09;90.78
69543;SHT31;56762;49.494;11.768;2022-08-21T07:30:14;17.08;90.80
69543;SHT31;56762;49.494;11.768;2022-08-21T07:32:41;17.11;91.27
69543;SHT31;56762;49.494;11.768;2022-08-21T07:35:10;17.15;90.90
69543;SHT31;56762;49.494;11.768;2022-08-21T07:37:40;17.26;90.17
69543;SHT31;56762;49.494;11.768;2022-08-21T07:40:08;17.26;90.05
69543;SHT31;56762;49.494;11.768;2022-08-21T07:42:39;17.28;90.41
69543;SHT31;56762;49.494;11.768;2022-08-21T07:45:08;17.32;90.62
69543;SHT31;56762;49.494;11.768;2022-08-21T07:47:37;17.36;90.58
69543;SHT31;56762;49.494;11.768;2022-08-21T07:50:08;17.39;90.62
69543;SHT31;56762;49.494;11.768;2022-08-21T07:52:38;17.42;90.46
69543;SHT31;56762;49.494;11.768;2022-08-21T07:55:09;17.40;90.62
69543;SHT31;56762;49.494;11.768;2022-08-21T07:57:37;17.45;90.70
69543;SHT31;56762;49.494;11.768;2022-08-21T08:00:09;17.46;90.20
69543;SHT31;56762;49.494;11.768;2022-08-21T08:02:38;17.46;90.40
69543;SHT31;56762;49.494;11.768;2022-08-21T08:05:08;17.51;90.31
69543;SHT31;56762;49.494;11.768;2022-08-21T08:07:38;17.51;89.86
69543;SHT31;56762;49.494;11.768;2022-08-21T08:10:08;17.51;90.43
69543;SHT31;56762;49.494;11.768;2022-08-21T08:12:38;17.56;90.27
69543;SHT31;56762;49.494;11.768;2022-08-21T08:15:09;17.62;90.37
69543;SHT31;56762;49.494;11.768;2022-08-21T08:17:37;17.62;90.36
69543;SHT31;56762;49.494;11.768;2022-08-21T08:20:07;17.65;90.21
69543;SHT31;56762;49.494;11.768;2022-08-21T08:22:37;17.67;90.08
69543;SHT31;56762;49.494;11.768;2022-08-21T08:25:08;17.65;89.93
69543;SHT31;56762;49.494;11.768;2022-08-21T08:27:37;17.62;90.00
69543;SHT31;56762;49.494;11.768;2022-08-21T08:30:07;17.63;90.22
69543;SHT31;56762;49.494;11.768;2022-08-21T08:32:35;17.67;90.61
69543;SHT31;56762;49.494;11.768;2022-08-21T08:35:04;17.70;90.48
69543;SHT31;56762;49.494;11.768;2022-08-21T08:37:34;17.69;89.85
69543;SHT31;56762;49.494;11.768;2022-08-21T08:40:10;17.70;89.77
69543;SHT31;56762;49.494;11.768;2022-08-21T08:42:39;17.70;89.91
69543;SHT31;56762;49.494;11.768;2022-08-21T08:45:10;17.71;90.17
69543;SHT31;56762;49.494;11.768;2022-08-21T08:47:40;17.74;90.51
69543;SHT31;56762;49.494;11.768;2022-08-21T08:50:15;17.77;90.69
69543;SHT31;56762;49.494;11.768;2022-08-21T08:52:48;17.81;90.30
69543;SHT31;56762;49.494;11.768;2022-08-21T08:55:21;17.86;90.32
69543;SHT31;56762;49.494;11.768;2022-08-21T08:57:53;17.89;90.56
69543;SHT31;56762;49.494;11.768;2022-08-21T09:00:23;17.91;89.82
69543;SHT31;56762;49.494;11.768;2022-08-21T09:02:54;17.94;89.46
69543;SHT31;56762;49.494;11.768;2022-08-21T09:05:24;17.93;89.87
69543;SHT31;56762;49.494;11.768;2022-08-21T09:08:06;17.96;88.65
69543;SHT31;56762;49.494;11.768;2022-08-21T09:10:55;17.97;88.98
69543;SHT31;56762;49.494;11.768;2022-08-21T09:13:35;18.00;89.11
69543;SHT31;56762;49.494;11.768;2022-08-21T09:16:09;18.00;89.44
69543;SHT31;56762;49.494;11.768;2022-08-21T09:18:45;18.00;89.10
69543;SHT31;56762;49.494;11.768;2022-08-21T09:21:27;18.07;88.69
69543;SHT31;56762;49.494;11.768;2022-08-21T09:24:00;18.17;88.51
69543;SHT31;56762;49.494;11.768;2022-08-21T09:26:43;18.25;88.33
69543;SHT31;56762;49.494;11.768;2022-08-21T09:29:17;18.35;88.52
69543;SHT31;56762;49.494;11.768;2022-08-21T09:31:48;18.56;88.49
69543;SHT31;56762;49.494;11.768;2022-08-21T09:34:25;18.70;87.76
69543;SHT31;56762;49.494;11.768;2022-08-21T09:36:53;18.88;88.10
69543;SHT31;56762;49.494;11.768;2022-08-21T09:39:25;19.04;87.56
69543;SHT31;56762;49.494;11.768;2022-08-21T09:42:00;19.13;86.78
69543;SHT31;56762;49.494;11.768;2022-08-21T09:44:34;19.17;86.12
69543;SHT31;56762;49.494;11.768;2022-08-21T09:47:05;19.21;85.92
69543;SHT31;56762;49.494;11.768;2022-08-21T09:49:35;19.27;86.19
69543;SHT31;56762;49.494;11.768;2022-08-21T09:52:06;19.34;85.91
69543;SHT31;56762;49.494;11.768;2022-08-21T09:54:41;19.34;85.14
69543;SHT31;56762;49.494;11.768;2022-08-21T09:57:20;19.32;84.84
69543;SHT31;56762;49.494;11.768;2022-08-21T10:00:19;19.37;84.46
69543;SHT31;56762;49.494;11.768;2022-08-21T10:02:47;19.38;85.02
69543;SHT31;56762;49.494;11.768;2022-08-21T10:05:18;19.40;84.77
69543;SHT31;56762;49.494;11.768;2022-08-21T10:07:46;19.40;84.70
69543;SHT31;56762;49.494;11.768;2022-08-21T10:10:16;19.46;83.97
69543;SHT31;56762;49.494;11.768;2022-08-21T10:12:51;19.44;84.78
69543;SHT31;56762;49.494;11.768;2022-08-21T10:15:27;19.47;84.50
69543;SHT31;56762;49.494;11.768;2022-08-21T10:18:04;19.53;84.48
69543;SHT31;56762;49.494;11.768;2022-08-21T10:20:41;19.64;83.86
69543;SHT31;56762;49.494;11.768;2022-08-21T10:23:26;19.77;82.80
69543;SHT31;56762;49.494;11.768;2022-08-21T10:25:58;19.85;83.49
69543;SHT31;56762;49.494;11.768;2022-08-21T10:28:47;19.85;83.08
69543;SHT31;56762;49.494;11.768;2022-08-21T10:31:27;19.81;83.19
69543;SHT31;56762;49.494;11.768;2022-08-21T10:34:06;19.82;83.21
69543;SHT31;56762;49.494;11.768;2022-08-21T10:36:39;19.86;82.48
69543;SHT31;56762;49.494;11.768;2022-08-21T10:39:18;19.89;82.60
69543;SHT31;56762;49.494;11.768;2022-08-21T10:42:18;19.95;82.76
69543;SHT31;56762;49.494;11.768;2022-08-21T10:45:02;19.95;82.24
69543;SHT31;56762;49.494;11.768;2022-08-21T10:47:38;19.93;82.42
69543;SHT31;56762;49.494;11.768;2022-08-21T10:50:15;19.93;82.62
69543;SHT31;56762;49.494;11.768;2022-08-21T10:52:58;19.98;82.44
69543;SHT31;56762;49.494;11.768;2022-08-21T10:55:31;19.93;82.34
69543;SHT31;56762;49.494;11.768;2022-08-21T10:58:04;19.89;82.23
69543;SHT31;56762;49.494;11.768;2022-08-21T11:00:40;19.93;82.12
69543;SHT31;56762;49.494;11.768;2022-08-21T11:03:15;19.95;81.90
69543;SHT31;56762;49.494;11.768;2022-08-21T11:05:48;19.96;81.86
69543;SHT31;56762;49.494;11.768;2022-08-21T11:08:21;20.04;81.18
69543;SHT31;56762;49.494;11.768;2022-08-21T11:10:53;20.09;80.78
69543;SHT31;56762;49.494;11.768;2022-08-21T11:13:30;20.10;80.22
69543;SHT31;56762;49.494;11.768;2022-08-21T11:16:07;20.16;80.74
69543;SHT31;56762;49.494;11.768;2022-08-21T11:18:39;20.26;81.22
69543;SHT31;56762;49.494;11.768;2022-08-21T11:21:23;20.39;80.79
69543;SHT31;56762;49.494;11.768;2022-08-21T11:24:00;20.56;79.43
69543;SHT31;56762;49.494;11.768;2022-08-21T11:26:35;20.57;78.12
69543;SHT31;56762;49.494;11.768;2022-08-21T11:29:10;20.51;78.75
69543;SHT31;56762;49.494;11.768;2022-08-21T11:31:52;20.49;79.45
69543;SHT31;56762;49.494;11.768;2022-08-21T11:34:33;20.53;79.39
69543;SHT31;56762;49.494;11.768;2022-08-21T11:37:11;20.61;78.87
69543;SHT31;56762;49.494;11.768;2022-08-21T11:39:45;20.63;77.22
69543;SHT31;56762;49.494;11.768;2022-08-21T11:42:24;20.59;77.79
69543;SHT31;56762;49.494;11.768;2022-08-21T11:45:02;20.59;77.70
69543;SHT31;56762;49.494;11.768;2022-08-21T11:47:42;20.70;77.60
69543;SHT31;56762;49.494;11.768;2022-08-21T11:50:21;20.84;77.85
69543;SHT31;56762;49.494;11.768;2022-08-21T11:53:05;20.92;77.64
69543;SHT31;56762;49.494;11.768;2022-08-21T11:55:40;20.92;77.10
69543;SHT31;56762;49.494;11.768;2022-08-21T11:58:14;20.97;76.31
69543;SHT31;56762;49.494;11.768;2022-08-21T12:00:47;20.88;76.20
69543;SHT31;56762;49.494;11.768;2022-08-21T12:03:24;20.87;76.02
69543;SHT31;56762;49.494;11.768;2022-08-21T12:05:54;20.90;75.38
69543;SHT31;56762;49.494;11.768;2022-08-21T12:08:28;20.95;75.31
69543;SHT31;56762;49.494;11.768;2022-08-21T12:11:04;21.00;75.27
69543;SHT31;56762;49.494;11.768;2022-08-21T12:13:36;21.00;75.16
69543;SHT31;56762;49.494;11.768;2022-08-21T12:16:10;20.98;76.02
69543;SHT31;56762;49.494;11.768;2022-08-21T12:18:41;21.00;76.37
69543;SHT31;56762;49.494;11.768;2022-08-21T12:21:24;21.12;74.98
69543;SHT31;56762;49.494;11.768;2022-08-21T12:24:02;21.08;74.62
69543;SHT31;56762;49.494;11.768;2022-08-21T12:26:34;21.05;74.17
69543;SHT31;56762;49.494;11.768;2022-08-21T12:29:07;21.02;74.38
69543;SHT31;56762;49.494;11.768;2022-08-21T12:31:52;20.95;74.16
69543;SHT31;56762;49.494;11.768;2022-08-21T12:34:31;20.98;72.68
69543;SHT31;56762;49.494;11.768;2022-08-21T12:37:02;21.04;71.48
69543;SHT31;56762;49.494;11.768;2022-08-21T12:39:34;21.01;72.13
69543;SHT31;56762;49.494;11.768;2022-08-21T12:42:17;21.02;72.90
69543;SHT31;56762;49.494;11.768;2022-08-21T12:44:49;21.12;71.80
69543;SHT31;56762;49.494;11.768;2022-08-21T12:47:26;21.21;71.91
69543;SHT31;56762;49.494;11.768;2022-08-21T12:50:03;21.29;70.38
69543;SHT31;56762;49.494;11.768;2022-08-21T12:52:34;21.37;67.49
69543;SHT31;56762;49.494;11.768;2022-08-21T12:55:06;21.37;68.45
69543;SHT31;56762;49.494;11.768;2022-08-21T12:57:35;21.50;67.19
69543;SHT31;56762;49.494;11.768;2022-08-21T13:00:06;21.60;66.73
69543;SHT31;56762;49.494;11.768;2022-08-21T13:02:38;21.65;66.98
69543;SHT31;56762;49.494;11.768;2022-08-21T13:05:13;21.65;65.49
69543;SHT31;56762;49.494;11.768;2022-08-21T13:07:45;21.69;61.08
69543;SHT31;56762;49.494;11.768;2022-08-21T13:10:18;21.72;62.70
69543;SHT31;56762;49.494;11.768;2022-08-21T13:12:47;21.73;62.75
69543;SHT31;56762;49.494;11.768;2022-08-21T13:15:22;21.80;62.90
69543;SHT31;56762;49.494;11.768;2022-08-21T13:17:59;21.86;61.59
69543;SHT31;56762;49.494;11.768;2022-08-21T13:20:33;21.90;59.78
69543;SHT31;56762;49.494;11.768;2022-08-21T13:23:02;21.93;59.49
69543;SHT31;56762;49.494;11.768;2022-08-21T13:25:35;21.89;59.58
69543;SHT31;56762;49.494;11.768;2022-08-21T13:28:06;21.90;61.51
69543;SHT31;56762;49.494;11.768;2022-08-21T13:30:37;21.85;61.43
69543;SHT31;56762;49.494;11.768;2022-08-21T13:33:06;21.90;58.39
69543;SHT31;56762;49.494;11.768;2022-08-21T13:35:48;21.92;59.33
69543;SHT31;56762;49.494;11.768;2022-08-21T13:38:19;21.89;59.48
69543;SHT31;56762;49.494;11.768;2022-08-21T13:40:56;21.88;60.74
69543;SHT31;56762;49.494;11.768;2022-08-21T13:43:27;21.89;61.01
69543;SHT31;56762;49.494;11.768;2022-08-21T13:45:59;21.96;60.38
69543;SHT31;56762;49.494;11.768;2022-08-21T13:48:31;22.06;58.66
69543;SHT31;56762;49.494;11.768;2022-08-21T13:51:04;22.04;59.71
69543;SHT31;56762;49.494;11.768;2022-08-21T13:53:36;22.07;59.66
69543;SHT31;56762;49.494;11.768;2022-08-21T13:56:22;22.06;59.89
69543;SHT31;56762;49.494;11.768;2022-08-21T13:58:52;22.10;60.08
69543;SHT31;56762;49.494;11.768;2022-08-21T14:01:23;22.10;60.12
69543;SHT31;56762;49.494;11.768;2022-08-21T14:03:56;22.14;60.64
69543;SHT31;56762;49.494;11.768;2022-08-21T14:06:27;22.20;60.86
69543;SHT31;56762;49.494;11.768;2022-08-21T14:08:58;22.13;60.17
69543;SHT31;56762;49.494;11.768;2022-08-21T14:11:31;22.09;59.45
69543;SHT31;56762;49.494;11.768;2022-08-21T14:14:03;22.01;60.57
69543;SHT31;56762;49.494;11.768;2022-08-21T14:16:43;22.09;57.50
69543;SHT31;56762;49.494;11.768;2022-08-21T14:19:19;22.16;56.23
69543;SHT31;56762;49.494;11.768;2022-08-21T14:21:49;22.18;56.94
69543;SHT31;56762;49.494;11.768;2022-08-21T14:24:26;22.31;57.40
69543;SHT31;56762;49.494;11.768;2022-08-21T14:27:00;22.38;56.87
69543;SHT31;56762;49.494;11.768;2022-08-21T14:29:33;22.45;56.39
69543;SHT31;56762;49.494;11.768;2022-08-21T14:32:09;22.38;55.11
69543;SHT31;56762;49.494;11.768;2022-08-21T14:34:50;22.34;55.73
69543;SHT31;56762;49.494;11.768;2022-08-21T14:37:22;22.28;57.26
69543;SHT31;56762;49.494;11.768;2022-08-21T14:39:50;22.30;58.88
69543;SHT31;56762;49.494;11.768;2022-08-21T14:42:18;22.28;59.31
69543;SHT31;56762;49.494;11.768;2022-08-21T14:44:47;22.36;57.97
69543;SHT31;56762;49.494;11.768;2022-08-21T14:47:15;22.37;57.66
69543;SHT31;56762;49.494;11.768;2022-08-21T14:49:44;22.38;58.37
69543;SHT31;56762;49.494;11.768;2022-08-21T14:52:12;22.48;57.10
69543;SHT31;56762;49.494;11.768;2022-08-21T14:54:42;22.47;56.94
69543;SHT31;56762;49.494;11.768;2022-08-21T14:57:11;22.55;55.31
69543;SHT31;56762;49.494;11.768;2022-08-21T14:59:42;22.61;53.29
69543;SHT31;56762;49.494;11.768;2022-08-21T15:02:10;22.58;55.31
69543;SHT31;56762;49.494;11.768;2022-08-21T15:04:38;22.54;54.71
69543;SHT31;56762;49.494;11.768;2022-08-21T15:07:08;22.50;54.52
69543;SHT31;56762;49.494;11.768;2022-08-21T15:09:35;22.48;55.31
69543;SHT31;56762;49.494;11.768;2022-08-21T15:12:08;22.50;55.30
69543;SHT31;56762;49.494;11.768;2022-08-21T15:14:39;22.55;54.49
69543;SHT31;56762;49.494;11.768;2022-08-21T15:17:09;22.57;53.73
69543;SHT31;56762;49.494;11.768;2022-08-21T15:19:38;22.68;52.44
69543;SHT31;56762;49.494;11.768;2022-08-21T15:22:07;22.69;52.69
69543;SHT31;56762;49.494;11.768;2022-08-21T15:24:44;22.59;53.35
69543;SHT31;56762;49.494;11.768;2022-08-21T15:27:14;22.58;52.66
69543;SHT31;56762;49.494;11.768;2022-08-21T15:29:44;22.55;52.54
69543;SHT31;56762;49.494;11.768;2022-08-21T15:32:17;22.58;51.55
69543;SHT31;56762;49.494;11.768;2022-08-21T15:34:45;22.57;51.61
69543;SHT31;56762;49.494;11.768;2022-08-21T15:37:14;22.54;51.96
69543;SHT31;56762;49.494;11.768;2022-08-21T15:39:42;22.62;51.30
69543;SHT31;56762;49.494;11.768;2022-08-21T15:42:19;22.57;50.18